createdAt,value
2023-01-10T00:02:13.953Z,3.03
2023-01-10T00:04:42.580Z,2.13
2023-01-10T00:07:10.974Z,3.78
2023-01-10T00:09:39.491Z,2.83
2023-01-10T00:12:26.050Z,2.60
2023-01-10T00:14:54.394Z,3.53
2023-01-10T00:17:24.789Z,3.00
2023-01-10T00:19:53.170Z,2.45
2023-01-10T00:22:25.216Z,3.35
2023-01-10T00:24:53.707Z,2.72
2023-01-10T00:27:23.690Z,2.75
2023-01-10T00:29:53.842Z,3.10
2023-01-10T00:32:24.015Z,3.22
2023-01-10T00:34:52.543Z,2.53
2023-01-10T00:37:21.084Z,3.15
2023-01-10T00:39:49.523Z,3.03
2023-01-10T00:42:35.029Z,2.90
2023-01-10T00:45:03.342Z,2.47
2023-01-10T00:47:33.121Z,2.00
2023-01-10T00:50:01.385Z,2.50
2023-01-10T00:52:29.728Z,3.08
2023-01-10T00:54:57.961Z,3.50
2023-01-10T00:57:26.293Z,2.78
2023-01-10T00:59:54.693Z,2.67
2023-01-10T01:02:23.386Z,3.50
2023-01-10T01:04:53.171Z,3.20
2023-01-10T01:07:21.482Z,2.85
2023-01-10T01:10:07.338Z,3.00
2023-01-10T01:12:35.873Z,3.50
2023-01-10T01:15:04.149Z,2.63
2023-01-10T01:17:32.393Z,2.63
2023-01-10T01:20:02.065Z,3.10
2023-01-10T01:22:30.385Z,3.60
2023-01-10T01:24:58.754Z,3.33
2023-01-10T01:27:27.010Z,3.33
2023-01-10T01:29:55.231Z,2.85
2023-01-10T01:32:23.880Z,3.13
2023-01-10T01:34:52.189Z,3.58
2023-01-10T01:37:21.889Z,3.00
2023-01-10T01:39:50.074Z,2.95
2023-01-10T01:42:26.696Z,3.90
2023-01-10T01:45:41.536Z,3.42
2023-01-10T01:48:30.558Z,3.58
2023-01-10T01:51:07.699Z,3.83
2023-01-10T01:53:43.861Z,4.60
2023-01-10T01:56:19.734Z,3.20
2023-01-10T01:58:52.319Z,3.50
2023-01-10T02:01:21.921Z,3.80
2023-01-10T02:03:55.500Z,3.05
2023-01-10T02:06:26.922Z,3.55
2023-01-10T02:09:06.925Z,3.35
2023-01-10T02:11:35.180Z,3.65
2023-01-10T02:14:09.729Z,3.97
2023-01-10T02:16:37.967Z,3.85
2023-01-10T02:19:15.168Z,3.55
2023-01-10T02:22:41.691Z,3.38
2023-01-10T02:25:39.731Z,4.05
2023-01-10T02:28:51.496Z,3.17
2023-01-10T02:32:03.910Z,4.00
2023-01-10T02:34:42.704Z,3.03
2023-01-10T02:37:18.184Z,3.65
2023-01-10T02:40:00.122Z,4.65
2023-01-10T02:42:36.995Z,3.72
2023-01-10T02:45:12.588Z,4.53
2023-01-10T02:47:42.790Z,3.40
2023-01-10T02:50:33.320Z,3.35
2023-01-10T02:53:14.924Z,3.88
2023-01-10T02:56:02.199Z,4.22
2023-01-10T02:58:42.033Z,3.67
2023-01-10T03:01:18.752Z,3.97
2023-01-10T03:03:55.597Z,3.15
2023-01-10T03:06:35.863Z,3.70
2023-01-10T03:09:11.403Z,3.63
2023-01-10T03:11:44.530Z,3.63
2023-01-10T03:14:19.040Z,4.00
2023-01-10T03:16:58.700Z,3.45
2023-01-10T03:19:30.709Z,3.45
2023-01-10T03:22:02.962Z,4.03
2023-01-10T03:24:35.804Z,4.25
2023-01-10T03:27:11.352Z,3.88
2023-01-10T03:29:48.186Z,4.03
2023-01-10T03:32:19.226Z,3.95
2023-01-10T03:34:47.821Z,3.75
2023-01-10T03:37:26.246Z,4.35
2023-01-10T03:40:01.880Z,3.85
2023-01-10T03:42:58.686Z,3.65
2023-01-10T03:45:30.932Z,4.30
2023-01-10T03:48:03.644Z,4.70
2023-01-10T03:50:32.794Z,4.18
2023-01-10T03:53:02.605Z,3.95
2023-01-10T03:55:31.383Z,3.53
2023-01-10T03:57:59.650Z,4.13
2023-01-10T04:00:27.964Z,4.13
2023-01-10T04:02:58.334Z,5.43
2023-01-10T04:05:26.828Z,4.90
2023-01-10T04:07:55.319Z,4.47
2023-01-10T04:10:27.132Z,4.03
2023-01-10T04:12:55.435Z,3.97
2023-01-10T04:15:23.715Z,4.13
2023-01-10T04:17:51.943Z,4.35
2023-01-10T04:20:20.671Z,3.70
2023-01-10T04:22:51.586Z,4.88
2023-01-10T04:25:19.864Z,4.25
2023-01-10T04:27:50.680Z,3.88
2023-01-10T04:30:19.491Z,3.45
2023-01-10T04:32:48.906Z,4.75
2023-01-10T04:35:17.384Z,4.60
2023-01-10T04:37:45.744Z,3.80
2023-01-10T04:40:17.282Z,4.55
2023-01-10T04:42:45.604Z,4.00
2023-01-10T04:45:17.814Z,4.25
2023-01-10T04:47:51.538Z,4.93
2023-01-10T04:50:20.241Z,4.10
2023-01-10T04:52:48.445Z,3.63
2023-01-10T04:55:17.152Z,4.60
2023-01-10T04:57:45.525Z,4.32
2023-01-10T05:00:16.017Z,4.50
2023-01-10T05:02:44.962Z,4.85
2023-01-10T05:05:13.857Z,3.83
2023-01-10T05:07:43.387Z,4.80
2023-01-10T05:10:13.158Z,4.22
2023-01-10T05:12:41.423Z,4.43
2023-01-10T05:15:11.190Z,4.28
2023-01-10T05:17:44.130Z,4.30
2023-01-10T05:20:14.548Z,4.65
2023-01-10T05:22:42.904Z,4.30
2023-01-10T05:25:11.652Z,4.22
2023-01-10T05:27:43.397Z,4.45
2023-01-10T05:30:17.207Z,4.22
2023-01-10T05:32:46.858Z,4.57
2023-01-10T05:35:17.845Z,3.80
2023-01-10T05:37:46.383Z,4.05
2023-01-10T05:40:15.254Z,4.80
2023-01-10T05:42:43.951Z,4.55
2023-01-10T05:45:13.083Z,4.68
2023-01-10T05:47:41.513Z,4.68
2023-01-10T05:50:12.713Z,4.07
2023-01-10T05:52:41.327Z,4.97
2023-01-10T05:55:09.934Z,4.78
2023-01-10T05:57:38.303Z,4.43
2023-01-10T06:00:09.057Z,4.55
2023-01-10T06:02:39.054Z,4.32
2023-01-10T06:05:08.900Z,4.80
2023-01-10T06:07:41.876Z,4.90
2023-01-10T06:10:11.663Z,5.30
2023-01-10T06:12:41.090Z,4.10
2023-01-10T06:15:11.380Z,4.95
2023-01-10T06:17:39.595Z,4.60
2023-01-10T06:20:09.592Z,4.80
2023-01-10T06:22:42.400Z,4.43
2023-01-10T06:25:12.514Z,4.07
2023-01-10T06:27:42.103Z,4.35
2023-01-10T06:30:15.828Z,3.97
2023-01-10T06:32:44.659Z,4.35
2023-01-10T06:35:13.030Z,3.65
2023-01-10T06:37:43.058Z,4.63
2023-01-10T06:40:12.614Z,5.25
2023-01-10T06:42:42.313Z,4.95
2023-01-10T06:45:12.394Z,4.22
2023-01-10T06:47:40.771Z,4.97
2023-01-10T06:50:10.917Z,5.75
2023-01-10T06:52:39.381Z,4.93
2023-01-10T06:55:10.156Z,4.78
2023-01-10T06:57:41.165Z,4.97
2023-01-10T07:00:11.853Z,5.47
2023-01-10T07:02:40.063Z,5.47
2023-01-10T07:05:11.409Z,5.55
2023-01-10T07:07:39.965Z,5.60
2023-01-10T07:10:12.831Z,5.45
2023-01-10T07:12:41.214Z,6.63
2023-01-10T07:15:10.795Z,5.80
2023-01-10T07:17:39.119Z,5.32
2023-01-10T07:20:09.032Z,5.82
2023-01-10T07:22:37.466Z,5.90
2023-01-10T07:25:06.777Z,7.00
2023-01-10T07:27:38.860Z,8.60
2023-01-10T07:30:09.515Z,7.05
2023-01-10T07:32:37.767Z,6.78
2023-01-10T07:35:07.180Z,5.60
2023-01-10T07:37:35.971Z,6.90
2023-01-10T07:40:04.372Z,7.65
2023-01-10T07:42:32.553Z,7.95
2023-01-10T07:45:02.212Z,7.00
2023-01-10T07:47:30.530Z,7.25
2023-01-10T07:49:58.784Z,6.75
2023-01-10T07:52:27.189Z,6.93
2023-01-10T07:54:55.476Z,7.30
2023-01-10T07:57:23.930Z,6.90
2023-01-10T07:59:52.354Z,6.30
2023-01-10T08:02:22.241Z,7.47
2023-01-10T08:04:50.503Z,6.43
2023-01-10T08:07:18.898Z,6.50
2023-01-10T08:09:47.199Z,6.20
2023-01-10T08:12:15.431Z,7.18
2023-01-10T08:14:43.900Z,6.50
2023-01-10T08:17:12.552Z,6.43
2023-01-10T08:19:42.205Z,6.70
2023-01-10T08:22:10.565Z,6.55
2023-01-10T08:24:39.064Z,7.70
2023-01-10T08:27:07.426Z,6.95
2023-01-10T08:29:36.456Z,5.95
2023-01-10T08:32:04.796Z,6.13
2023-01-10T08:34:33.219Z,6.43
2023-01-10T08:37:03.436Z,6.65
2023-01-10T08:39:32.225Z,5.75
2023-01-10T08:42:00.605Z,6.50
2023-01-10T08:44:29.025Z,6.00
2023-01-10T08:46:57.912Z,7.13
2023-01-10T08:49:26.518Z,6.65
2023-01-10T08:51:54.848Z,6.88
2023-01-10T08:54:25.358Z,7.28
2023-01-10T08:56:53.601Z,6.53
2023-01-10T08:59:21.868Z,6.68
2023-01-10T09:01:50.231Z,7.18
2023-01-10T09:04:18.667Z,6.50
2023-01-10T09:06:47.020Z,5.70
2023-01-10T09:09:15.475Z,5.35
2023-01-10T09:11:45.301Z,5.50
2023-01-10T09:14:13.637Z,5.50
2023-01-10T09:16:43.066Z,6.47
2023-01-10T09:19:12.516Z,5.57
2023-01-10T09:21:41.210Z,6.50
2023-01-10T09:24:09.569Z,5.72
2023-01-10T09:26:38.202Z,5.40
2023-01-10T09:29:08.202Z,5.57
2023-01-10T09:31:36.822Z,4.95
2023-01-10T09:34:05.211Z,5.25
2023-01-10T09:36:34.023Z,5.88
2023-01-10T09:39:02.310Z,5.65
2023-01-10T09:42:07.291Z,4.47
2023-01-10T09:44:51.272Z,5.28
2023-01-10T09:47:26.369Z,6.00
2023-01-10T09:50:12.198Z,5.70
2023-01-10T09:52:46.778Z,5.53
2023-01-10T09:55:28.569Z,4.85
2023-01-10T09:58:01.409Z,6.82
2023-01-10T10:00:40.233Z,5.18
2023-01-10T10:03:24.617Z,5.28
2023-01-10T10:06:00.832Z,5.45
2023-01-10T10:08:37.530Z,5.43
2023-01-10T10:11:31.979Z,5.40
2023-01-10T10:14:09.155Z,4.97
2023-01-10T10:16:56.575Z,4.82
2023-01-10T10:19:35.054Z,4.93
2023-01-10T10:22:14.339Z,5.00
2023-01-10T10:24:59.416Z,5.22
2023-01-10T10:27:45.647Z,4.88
2023-01-10T10:30:36.707Z,4.28
2023-01-10T10:33:42.061Z,5.07
2023-01-10T10:36:17.312Z,5.07
2023-01-10T10:38:48.579Z,4.82
2023-01-10T10:41:27.415Z,5.10
2023-01-10T10:43:57.084Z,4.50
2023-01-10T10:46:26.977Z,4.15
2023-01-10T10:49:01.270Z,4.40
2023-01-10T10:51:39.758Z,4.30
2023-01-10T10:54:10.784Z,4.82
2023-01-10T10:56:39.220Z,4.68
2023-01-10T10:59:08.832Z,5.13
2023-01-10T11:01:37.544Z,4.50
2023-01-10T11:04:13.501Z,4.22
2023-01-10T11:06:48.926Z,4.38
2023-01-10T11:09:19.011Z,4.63
2023-01-10T11:11:52.435Z,4.05
2023-01-10T11:14:43.833Z,5.35
2023-01-10T11:17:33.899Z,4.70
2023-01-10T11:20:06.836Z,4.18
2023-01-10T11:22:41.206Z,4.50
2023-01-10T11:25:17.341Z,5.35
2023-01-10T11:27:50.519Z,4.07
2023-01-10T11:30:23.867Z,4.45
2023-01-10T11:32:55.861Z,4.63
2023-01-10T11:35:28.959Z,4.28
2023-01-10T11:38:03.444Z,4.28
2023-01-10T11:40:33.611Z,4.60
2023-01-10T11:43:27.160Z,4.70
2023-01-10T11:45:58.904Z,4.60
2023-01-10T11:49:03.930Z,4.38
2023-01-10T11:51:28.880Z,4.60
2023-01-10T11:54:00.885Z,4.07
2023-01-10T11:56:33.804Z,4.05
2023-01-10T11:59:12.566Z,4.45
2023-01-10T12:01:45.186Z,4.28
2023-01-10T12:04:16.988Z,4.32
2023-01-10T12:06:49.646Z,5.68
2023-01-10T12:09:42.374Z,5.05
2023-01-10T12:12:20.795Z,4.93
2023-01-10T12:14:50.014Z,4.93
2023-01-10T12:17:25.503Z,4.18
2023-01-10T12:19:58.455Z,5.45
2023-01-10T12:22:33.280Z,4.50
2023-01-10T12:25:05.108Z,4.88
2023-01-10T12:27:34.745Z,4.78
2023-01-10T12:30:09.121Z,4.00
2023-01-10T12:32:44.081Z,4.97
2023-01-10T12:35:19.872Z,4.68
2023-01-10T12:37:56.006Z,4.07
2023-01-10T12:40:42.317Z,4.70
2023-01-10T12:43:37.492Z,5.22
2023-01-10T12:46:29.731Z,3.95
2023-01-10T12:49:14.060Z,4.63
2023-01-10T12:51:44.677Z,4.45
2023-01-10T12:54:20.274Z,4.20
2023-01-10T12:56:49.788Z,4.60
2023-01-10T12:59:36.622Z,3.85
2023-01-10T13:02:16.366Z,4.30
2023-01-10T13:04:50.478Z,4.78
2023-01-10T13:07:20.030Z,4.38
2023-01-10T13:09:51.338Z,5.15
2023-01-10T13:12:24.660Z,5.38
2023-01-10T13:14:59.204Z,4.38
2023-01-10T13:17:40.608Z,4.32
2023-01-10T13:20:38.516Z,4.93
2023-01-10T13:23:33.490Z,5.15
2023-01-10T13:26:16.992Z,7.95
2023-01-10T13:28:58.231Z,8.30
2023-01-10T13:31:30.157Z,7.60
2023-01-10T13:34:03.712Z,7.95
2023-01-10T13:36:39.754Z,6.60
2023-01-10T13:39:22.195Z,4.63
2023-01-10T13:42:46.562Z,4.53
2023-01-10T13:45:34.156Z,4.95
2023-01-10T13:48:26.185Z,4.00
2023-01-10T13:51:16.902Z,4.18
2023-01-10T13:53:57.236Z,4.75
2023-01-10T13:56:41.319Z,4.53
2023-01-10T13:59:56.077Z,4.85
2023-01-10T14:02:32.731Z,4.50
2023-01-10T14:05:03.161Z,4.60
2023-01-10T14:07:35.840Z,4.05
2023-01-10T14:10:08.298Z,4.32
2023-01-10T14:12:40.698Z,4.40
2023-01-10T14:15:26.625Z,4.32
2023-01-10T14:18:00.734Z,4.05
2023-01-10T14:20:31.183Z,4.65
2023-01-10T14:23:05.432Z,3.72
2023-01-10T14:25:36.846Z,4.95
2023-01-10T14:28:07.496Z,3.92
2023-01-10T14:30:41.999Z,3.75
2023-01-10T14:33:18.414Z,4.95
2023-01-10T14:35:49.320Z,4.13
2023-01-10T14:38:25.582Z,4.30
2023-01-10T14:40:59.131Z,4.25
2023-01-10T14:43:39.226Z,3.95
2023-01-10T14:46:14.541Z,4.05
2023-01-10T14:48:51.050Z,4.57
2023-01-10T14:51:25.536Z,4.88
2023-01-10T14:53:59.946Z,3.67
2023-01-10T14:56:31.572Z,4.10
2023-01-10T14:58:59.882Z,4.18
2023-01-10T15:01:32.282Z,4.30
2023-01-10T15:04:02.895Z,4.40
2023-01-10T15:06:31.331Z,4.00
2023-01-10T15:09:03.739Z,4.93
2023-01-10T15:11:33.279Z,4.57
2023-01-10T15:14:10.327Z,4.90
2023-01-10T15:16:43.391Z,5.30
2023-01-10T15:19:18.369Z,4.07
2023-01-10T15:21:47.916Z,4.22
2023-01-10T15:24:33.064Z,3.85
2023-01-10T15:27:04.867Z,4.15
2023-01-10T15:29:35.148Z,3.97
2023-01-10T15:32:14.649Z,3.75
2023-01-10T15:34:43.426Z,4.18
2023-01-10T15:37:25.537Z,4.25
2023-01-10T15:39:56.102Z,3.53
2023-01-10T15:42:25.688Z,3.70
2023-01-10T15:44:55.727Z,3.72
2023-01-10T15:47:41.466Z,3.45
2023-01-10T15:50:22.800Z,3.38
2023-01-10T15:52:53.595Z,4.05
2023-01-10T15:55:41.590Z,3.28
2023-01-10T15:58:21.357Z,3.45
2023-01-10T16:00:52.562Z,3.25
2023-01-10T16:03:30.854Z,3.53
2023-01-10T16:06:02.232Z,3.60
2023-01-10T16:08:36.360Z,3.10
2023-01-10T16:11:09.157Z,3.60
2023-01-10T16:13:42.697Z,3.58
2023-01-10T16:16:19.743Z,3.72
2023-01-10T16:18:49.694Z,3.03
2023-01-10T16:21:20.134Z,3.40
2023-01-10T16:23:48.705Z,2.92
2023-01-10T16:26:17.415Z,3.35
2023-01-10T16:28:45.912Z,3.20
2023-01-10T16:31:17.659Z,3.10
2023-01-10T16:33:46.584Z,3.47
2023-01-10T16:36:20.967Z,3.50
2023-01-10T16:38:49.592Z,3.83
2023-01-10T16:41:35.659Z,4.30
2023-01-10T16:44:04.113Z,3.67
2023-01-10T16:46:32.689Z,4.15
2023-01-10T16:49:01.083Z,4.50
2023-01-10T16:51:32.768Z,5.03
2023-01-10T16:54:01.347Z,4.90
2023-01-10T16:56:30.942Z,5.22
2023-01-10T16:59:00.023Z,5.10
2023-01-10T17:01:32.378Z,5.57
2023-01-10T17:04:01.441Z,6.38
2023-01-10T17:06:31.647Z,6.10
2023-01-10T17:09:00.367Z,5.82
2023-01-10T17:11:31.906Z,6.15
2023-01-10T17:14:01.076Z,6.43
2023-01-10T17:16:29.560Z,6.85
2023-01-10T17:18:58.140Z,6.72
2023-01-10T17:21:26.777Z,7.22
2023-01-10T17:23:56.484Z,6.95
2023-01-10T17:26:25.111Z,7.32
2023-01-10T17:28:53.353Z,7.68
2023-01-10T17:31:21.606Z,8.05
2023-01-10T17:33:50.123Z,7.88
2023-01-10T17:36:19.580Z,9.20
2023-01-10T17:38:48.222Z,9.85
2023-01-10T17:41:18.314Z,8.48
2023-01-10T17:43:50.028Z,8.65
2023-01-10T17:46:18.902Z,8.45
2023-01-10T17:48:47.139Z,9.18
2023-01-10T17:51:17.449Z,9.95
2023-01-10T17:53:45.828Z,9.75
2023-01-10T17:56:15.308Z,9.35
2023-01-10T17:59:08.794Z,10.10
2023-01-10T18:01:37.386Z,9.23
2023-01-10T18:04:06.221Z,10.00
2023-01-10T18:06:34.852Z,10.55
2023-01-10T18:09:04.318Z,10.30
2023-01-10T18:11:33.800Z,10.20
2023-01-10T18:14:23.495Z,10.32
2023-01-10T18:16:51.968Z,10.18
2023-01-10T18:19:23.798Z,10.45
2023-01-10T18:21:52.205Z,10.10
2023-01-10T18:24:20.505Z,9.80
2023-01-10T18:26:49.349Z,11.82
2023-01-10T18:29:19.092Z,11.63
2023-01-10T18:31:47.368Z,11.50
2023-01-10T18:34:15.630Z,10.88
2023-01-10T18:36:43.935Z,11.30
2023-01-10T18:39:14.263Z,11.10
2023-01-10T18:41:42.666Z,10.88
2023-01-10T18:44:10.954Z,11.18
2023-01-10T18:46:40.722Z,11.00
2023-01-10T18:49:09.050Z,10.02
2023-01-10T18:51:39.678Z,11.88
2023-01-10T18:54:20.202Z,11.10
2023-01-10T18:56:48.649Z,11.45
2023-01-10T18:59:18.985Z,10.98
2023-01-10T19:01:54.360Z,9.90
2023-01-10T19:04:22.797Z,11.90
2023-01-10T19:06:51.159Z,11.15
2023-01-10T19:09:19.864Z,11.45
2023-01-10T19:11:48.197Z,11.40
2023-01-10T19:14:16.638Z,11.00
2023-01-10T19:16:44.943Z,11.82
2023-01-10T19:19:17.936Z,11.38
2023-01-10T19:21:46.328Z,11.65
2023-01-10T19:24:26.433Z,11.13
2023-01-10T19:26:54.984Z,11.05
2023-01-10T19:29:24.361Z,10.52
2023-01-10T19:31:53.249Z,10.93
2023-01-10T19:34:23.656Z,11.35
2023-01-10T19:36:52.193Z,11.02
2023-01-10T19:39:20.490Z,10.60
2023-01-10T19:41:48.712Z,10.57
2023-01-10T19:44:18.189Z,11.32
2023-01-10T19:46:47.674Z,11.23
2023-01-10T19:49:19.523Z,10.15
2023-01-10T19:51:53.731Z,10.43
2023-01-10T19:54:23.920Z,10.20
2023-01-10T19:56:52.305Z,9.10
2023-01-10T19:59:20.631Z,8.70
2023-01-10T20:01:49.087Z,9.48
2023-01-10T20:04:21.684Z,8.65
2023-01-10T20:06:53.897Z,9.82
2023-01-10T20:09:28.005Z,9.00
2023-01-10T20:11:57.623Z,9.50
2023-01-10T20:14:28.313Z,8.82
2023-01-10T20:17:15.820Z,8.35
2023-01-10T20:19:47.269Z,8.85
2023-01-10T20:22:26.486Z,8.65
2023-01-10T20:24:56.748Z,9.05
2023-01-10T20:27:27.013Z,8.85
2023-01-10T20:29:57.486Z,9.05
2023-01-10T20:32:28.608Z,8.07
2023-01-10T20:34:58.101Z,9.10
2023-01-10T20:37:39.635Z,8.57
2023-01-10T20:40:23.741Z,9.43
2023-01-10T20:43:00.774Z,7.90
2023-01-10T20:45:32.534Z,8.13
2023-01-10T20:48:11.024Z,8.32
2023-01-10T20:50:45.175Z,8.68
2023-01-10T20:53:16.411Z,8.32
2023-01-10T20:55:53.488Z,8.85
2023-01-10T20:58:27.631Z,9.20
2023-01-10T21:00:56.461Z,8.27
2023-01-10T21:03:25.205Z,8.63
2023-01-10T21:05:55.532Z,7.95
2023-01-10T21:08:25.924Z,8.38
2023-01-10T21:10:54.714Z,8.77
2023-01-10T21:13:23.959Z,8.73
2023-01-10T21:15:55.958Z,8.27
2023-01-10T21:18:26.916Z,8.65
2023-01-10T21:20:56.997Z,7.82
2023-01-10T21:23:28.937Z,8.43
2023-01-10T21:26:04.046Z,8.73
2023-01-10T21:28:36.802Z,8.55
2023-01-10T21:31:05.454Z,8.38
2023-01-10T21:33:34.329Z,8.73
2023-01-10T21:36:02.741Z,9.55
2023-01-10T21:38:32.869Z,9.60
2023-01-10T21:41:08.580Z,8.98
2023-01-10T21:43:37.500Z,9.60
2023-01-10T21:46:06.151Z,9.43
2023-01-10T21:48:34.729Z,9.98
2023-01-10T21:51:03.075Z,9.15
2023-01-10T21:53:32.901Z,9.40
2023-01-10T21:56:01.305Z,9.15
2023-01-10T21:58:29.645Z,9.00
2023-01-10T22:00:59.743Z,9.05
2023-01-10T22:03:28.228Z,8.85
2023-01-10T22:05:56.611Z,9.88
2023-01-10T22:08:25.256Z,9.65
2023-01-10T22:10:55.054Z,9.50
2023-01-10T22:13:25.892Z,9.30
2023-01-10T22:15:59.769Z,10.60
2023-01-10T22:18:28.896Z,8.75
2023-01-10T22:20:57.695Z,8.95
2023-01-10T22:23:28.731Z,9.90
2023-01-10T22:26:03.047Z,9.30
2023-01-10T22:28:31.794Z,8.93
2023-01-10T22:31:01.032Z,9.65
2023-01-10T22:33:31.368Z,10.20
2023-01-10T22:36:05.620Z,10.38
2023-01-10T22:38:34.365Z,9.30
2023-01-10T22:41:09.050Z,9.73
2023-01-10T22:43:39.728Z,9.20
2023-01-10T22:46:08.676Z,9.65
2023-01-10T22:48:39.395Z,9.98
2023-01-10T22:51:08.324Z,9.35
2023-01-10T22:53:36.654Z,9.45
2023-01-10T22:56:10.608Z,9.98
2023-01-10T22:58:39.260Z,9.07
2023-01-10T23:01:08.851Z,9.48
2023-01-10T23:03:37.459Z,10.48
2023-01-10T23:06:06.066Z,9.02
2023-01-10T23:08:35.525Z,9.57
2023-01-10T23:11:03.914Z,9.57
2023-01-10T23:13:33.969Z,8.77
2023-01-10T23:16:05.272Z,9.38
2023-01-10T23:18:34.664Z,9.13
2023-01-10T23:21:03.524Z,8.88
2023-01-10T23:23:32.313Z,8.38
2023-01-10T23:26:03.225Z,8.50
2023-01-10T23:28:35.351Z,8.80
2023-01-10T23:31:04.818Z,8.50
2023-01-10T23:33:33.871Z,8.02
2023-01-10T23:36:02.765Z,8.23
2023-01-10T23:38:31.631Z,8.23
2023-01-10T23:41:00.019Z,7.47
2023-01-10T23:43:28.348Z,7.68
2023-01-10T23:45:58.458Z,7.28
2023-01-10T23:48:27.162Z,8.00
2023-01-10T23:50:55.806Z,8.20
2023-01-10T23:53:24.559Z,7.85
2023-01-10T23:55:53.626Z,7.60
2023-01-10T23:58:21.935Z,7.32
